Time;durP1;ratioP1;P1;durP2;ratioP2;P2;SDS_P1;SDS_P2;PMS_P1;PMS_P2;Temp;Humidity;BMP_temperature;BMP_pressure;BME280_temperature;BME280_humidity;BME280_pressure;Samples;Min_cycle;Max_cycle;Signal;HPM_P1;HPM_P2
2023/06/30 00:00:25;;;;;;;;;;;;;;;-140.72;100.00;52752.06;4984976;28;19977;-69
2023/06/30 00:02:50;;;;;;;;;;;;;;;-140.72;100.00;52735.81;4987493;28;19922;-69
2023/06/30 00:05:16;;;;;;;;;;;;;;;-140.72;100.00;52735.81;4986866;28;19952;-69
2023/06/30 00:07:42;;;;;;;;;;;;;;;-140.72;100.00;52739.88;4984050;28;20356;-69
2023/06/30 00:10:08;;;;;;;;;;;;;;;-140.72;100.00;52810.91;4969017;28;19922;-69
2023/06/30 00:12:33;;;;;;;;;;;;;;;-140.72;100.00;52752.06;4986452;28;20311;-69
2023/06/30 00:14:59;;;;;;;;;;;;;;;-140.72;100.00;52748.00;4989930;28;20591;-69
2023/06/30 00:17:24;;;;;;;;;;;;;;;-140.72;100.00;52719.59;4990546;28;20035;-69
2023/06/30 00:19:50;;;;;;;;;;;;;;;-140.72;100.00;52754.09;4991278;28;19930;-69
2023/06/30 00:22:16;;;;;;;;;;;;;;;-140.72;100.00;52723.66;4989116;28;19921;-69
2023/06/30 00:24:41;;;;;;;;;;;;;;;-140.72;100.00;52748.00;4970967;28;19929;-70
2023/06/30 00:27:07;;;;;;;;;;;;;;;-140.72;100.00;52752.06;4972419;28;20487;-69
2023/06/30 00:29:32;;;;;;;;;;;;;;;-140.72;100.00;52721.63;4991289;28;20291;-69
2023/06/30 00:31:57;;;;;;;;;;;;;;;-140.72;100.00;52735.81;4984670;28;19926;-69
2023/06/30 00:34:22;;;;;;;;;;;;;;;-140.72;100.00;52782.50;4991178;28;19929;-68
2023/06/30 00:36:48;;;;;;;;;;;;;;;-140.72;100.00;52762.22;4988415;28;19993;-68
2023/06/30 00:39:13;;;;;;;;;;;;;;;-140.72;100.00;52780.47;4991513;28;19941;-69
2023/06/30 00:41:38;;;;;;;;;;;;;;;-140.72;100.00;52750.03;4990953;28;19932;-68
2023/06/30 00:44:03;;;;;;;;;;;;;;;-140.72;100.00;52750.03;4989961;28;20432;-69
2023/06/30 00:46:29;;;;;;;;;;;;;;;-140.72;100.00;52784.53;4988604;28;21149;-69
2023/06/30 00:48:54;;;;;;;;;;;;;;;-140.72;100.00;52748.00;4988556;28;19922;-69
2023/06/30 00:51:19;;;;;;;;;;;;;;;-140.72;100.00;52768.28;4966185;28;19936;-68
2023/06/30 00:53:45;;;;;;;;;;;;;;;-140.72;100.00;52741.91;4989485;28;19922;-68
2023/06/30 00:56:10;;;;;;;;;;;;;;;-140.72;100.00;52800.75;4973934;28;19944;-68
2023/06/30 00:58:35;;;;;;;;;;;;;;;-140.72;100.00;52784.53;4990699;28;19929;-68
2023/06/30 01:01:15;;;;;;;;;;;;;;;-140.72;100.00;52737.84;4990512;28;20020;-68
2023/06/30 01:03:46;;;;;;;;;;;;;;;-140.72;100.00;52780.47;4969955;28;19968;-68
2023/06/30 01:06:20;;;;;;;;;;;;;;;-140.72;100.00;52741.91;4988669;28;20017;-68
2023/06/30 01:08:54;;;;;;;;;;;;;;;-140.72;100.00;52774.38;4991040;28;20012;-68
2023/06/30 01:11:19;;;;;;;;;;;;;;;-140.72;100.00;52723.66;4989703;28;19966;-68
2023/06/30 01:13:45;;;;;;;;;;;;;;;-140.72;100.00;52772.34;4986791;28;19926;-70
2023/06/30 01:16:11;;;;;;;;;;;;;;;-140.72;100.00;52800.75;4989899;28;19921;-68
2023/06/30 01:18:37;;;;;;;;;;;;;;;-140.72;100.00;52804.81;4988296;28;19921;-68
2023/06/30 01:21:06;;;;;;;;;;;;;;;-140.72;100.00;52764.25;4988773;28;19926;-68
2023/06/30 01:23:54;;;;;;;;;;;;;;;-140.72;100.00;52766.25;4986564;28;19980;-70
2023/06/30 01:26:20;;;;;;;;;;;;;;;-140.72;100.00;52776.41;4979671;28;20009;-68
2023/06/30 01:28:45;;;;;;;;;;;;;;;-140.72;100.00;52735.81;4989773;28;20020;-68
2023/06/30 01:31:11;;;;;;;;;;;;;;;-140.72;100.00;52776.41;4988104;28;20291;-68
2023/06/30 01:33:37;;;;;;;;;;;;;;;-140.72;100.00;52780.47;4989550;28;19962;-68
2023/06/30 01:36:02;;;;;;;;;;;;;;;-140.72;100.00;52784.53;4971871;28;20340;-69
2023/06/30 01:38:28;;;;;;;;;;;;;;;-140.72;100.00;52780.47;4970387;28;20028;-68
2023/06/30 01:40:53;;;;;;;;;;;;;;;-140.72;100.00;52780.47;4991452;28;19928;-67
2023/06/30 01:43:18;;;;;;;;;;;;;;;-140.72;100.00;52782.50;4989383;28;19926;-68
2023/06/30 01:45:44;;;;;;;;;;;;;;;-140.72;100.00;52796.72;4991657;28;19948;-68
2023/06/30 01:48:09;;;;;;;;;;;;;;;-140.72;100.00;52752.06;4989314;28;19976;-68
2023/06/30 01:50:35;;;;;;;;;;;;;;;-140.72;100.00;52778.44;4988961;28;20372;-68
2023/06/30 01:53:00;;;;;;;;;;;;;;;-140.72;100.00;52802.78;4988652;28;19933;-68
2023/06/30 01:55:26;;;;;;;;;;;;;;;-140.72;100.00;52796.72;4989473;28;20363;-68
2023/06/30 01:57:51;;;;;;;;;;;;;;;-140.72;100.00;52780.47;4985408;28;20379;-68
2023/06/30 02:00:16;;;;;;;;;;;;;;;-140.72;100.00;52784.53;4987530;28;19929;-68
2023/06/30 02:02:42;;;;;;;;;;;;;;;-140.72;100.00;52743.94;4966859;28;19921;-68
2023/06/30 02:05:07;;;;;;;;;;;;;;;-140.72;100.00;52796.72;4969202;28;19922;-69
2023/06/30 02:07:32;;;;;;;;;;;;;;;-140.72;100.00;52760.19;4986200;28;19997;-69
2023/06/30 02:09:58;;;;;;;;;;;;;;;-140.72;100.00;52756.13;4986729;28;19929;-68
2023/06/30 02:12:23;;;;;;;;;;;;;;;-140.72;100.00;52786.56;4989487;28;20357;-68
2023/06/30 02:14:48;;;;;;;;;;;;;;;-140.72;100.00;52796.72;4984685;28;20377;-69
2023/06/30 02:17:13;;;;;;;;;;;;;;;-140.72;100.00;52782.50;4988588;28;19936;-68
2023/06/30 02:19:39;;;;;;;;;;;;;;;-140.72;100.00;52778.44;4985980;28;20360;-68
2023/06/30 02:22:04;;;;;;;;;;;;;;;-140.72;100.00;52800.75;4986444;28;19960;-68
2023/06/30 02:24:29;;;;;;;;;;;;;;;-140.72;100.00;52784.53;4988550;28;20380;-68
2023/06/30 02:26:54;;;;;;;;;;;;;;;-140.72;100.00;52748.00;4989920;28;19922;-69
2023/06/30 02:29:20;;;;;;;;;;;;;;;-140.72;100.00;52804.81;4985812;28;19921;-69
2023/06/30 02:31:46;;;;;;;;;;;;;;;-140.72;100.00;52788.59;4980900;28;19921;-69
2023/06/30 02:34:11;;;;;;;;;;;;;;;-140.72;100.00;52794.69;4982766;28;19976;-68
2023/06/30 02:36:36;;;;;;;;;;;;;;;-140.72;100.00;52790.63;4986280;28;19922;-70
2023/06/30 02:39:02;;;;;;;;;;;;;;;-140.72;100.00;52806.84;4991550;28;19930;-68
2023/06/30 02:41:27;;;;;;;;;;;;;;;-140.72;100.00;52770.31;4991066;28;20303;-69
2023/06/30 02:43:53;;;;;;;;;;;;;;;-140.72;100.00;52794.69;4985009;28;19968;-69
2023/06/30 02:46:18;;;;;;;;;;;;;;;-140.72;100.00;52810.91;4986759;28;19929;-69
2023/06/30 02:48:43;;;;;;;;;;;;;;;-140.72;100.00;52772.34;4985284;28;19929;-69
2023/06/30 02:51:09;;;;;;;;;;;;;;;-140.72;100.00;52784.53;4987445;28;19925;-69
2023/06/30 02:53:34;;;;;;;;;;;;;;;-140.72;100.00;52764.25;4992099;28;19925;-69
2023/06/30 02:55:59;;;;;;;;;;;;;;;-140.72;100.00;52833.22;4990731;28;20016;-69
2023/06/30 02:58:24;;;;;;;;;;;;;;;-140.72;100.00;52817.00;4989847;28;19944;-69
2023/06/30 03:00:51;;;;;;;;;;;;;;;-140.72;100.00;52776.41;4990426;28;19928;-68
2023/06/30 03:03:16;;;;;;;;;;;;;;;-140.72;100.00;52772.34;4989498;28;20625;-69
2023/06/30 03:05:42;;;;;;;;;;;;;;;-140.72;100.00;52760.19;4973320;28;19928;-68
2023/06/30 03:08:09;;;;;;;;;;;;;;;-140.72;100.00;52764.25;4987311;28;19929;-68
2023/06/30 03:10:34;;;;;;;;;;;;;;;-140.72;100.00;52786.56;4992834;28;19979;-68
2023/06/30 03:13:00;;;;;;;;;;;;;;;-140.72;100.00;52780.47;4969790;28;19929;-68
2023/06/30 03:15:25;;;;;;;;;;;;;;;-140.72;100.00;52804.81;4974178;28;19961;-68
2023/06/30 03:17:50;;;;;;;;;;;;;;;-140.72;100.00;52790.63;4992515;28;19961;-68
2023/06/30 03:20:16;;;;;;;;;;;;;;;-140.72;100.00;52770.31;4992433;28;20264;-68
2023/06/30 03:22:41;;;;;;;;;;;;;;;-140.72;100.00;52796.72;4972813;28;19922;-68
2023/06/30 03:25:08;;;;;;;;;;;;;;;-140.72;100.00;52782.50;4990955;28;19926;-69
2023/06/30 03:27:34;;;;;;;;;;;;;;;-140.72;100.00;52798.72;4990808;28;19922;-68
2023/06/30 03:30:00;;;;;;;;;;;;;;;-140.72;100.00;52808.88;4993836;28;20402;-68
2023/06/30 03:32:25;;;;;;;;;;;;;;;-140.72;100.00;52808.88;4996069;28;19924;-68
2023/06/30 03:34:51;;;;;;;;;;;;;;;-140.72;100.00;52758.16;4993138;28;19930;-68
2023/06/30 03:37:16;;;;;;;;;;;;;;;-140.72;100.00;52768.28;4991642;28;19987;-68
2023/06/30 03:39:41;;;;;;;;;;;;;;;-140.72;100.00;52794.69;4988443;28;20303;-68
2023/06/30 03:42:06;;;;;;;;;;;;;;;-140.72;100.00;52786.56;4975378;28;19929;-68
2023/06/30 03:44:32;;;;;;;;;;;;;;;-140.72;100.00;52802.78;4987582;28;19945;-68
2023/06/30 03:46:57;;;;;;;;;;;;;;;-140.72;100.00;52772.34;4991687;28;19964;-68
2023/06/30 03:49:23;;;;;;;;;;;;;;;-140.72;100.00;52788.59;4989862;28;19918;-67
2023/06/30 03:51:48;;;;;;;;;;;;;;;-140.72;100.00;52810.91;4989115;28;20359;-67
2023/06/30 03:54:13;;;;;;;;;;;;;;;-140.72;100.00;52776.41;4990680;28;19929;-68
2023/06/30 03:56:38;;;;;;;;;;;;;;;-140.72;100.00;52784.53;4990144;28;19956;-68
2023/06/30 03:59:04;;;;;;;;;;;;;;;-140.72;100.00;52748.00;4986155;28;20273;-68
2023/06/30 04:01:33;;;;;;;;;;;;;;;-140.72;100.00;52780.47;4983196;28;20460;-68
2023/06/30 04:03:59;;;;;;;;;;;;;;;-140.72;100.00;52735.81;4990618;28;19925;-68
2023/06/30 04:06:24;;;;;;;;;;;;;;;-140.72;100.00;52762.22;4987152;28;19922;-68
2023/06/30 04:08:49;;;;;;;;;;;;;;;-140.72;100.00;52772.34;4992795;28;20025;-68
2023/06/30 04:11:14;;;;;;;;;;;;;;;-140.72;100.00;52739.88;4985245;28;19922;-68
2023/06/30 04:13:40;;;;;;;;;;;;;;;-140.72;100.00;52743.94;4987420;28;19922;-68
2023/06/30 04:16:05;;;;;;;;;;;;;;;-140.72;100.00;52711.47;4989599;28;19965;-68
2023/06/30 04:18:30;;;;;;;;;;;;;;;-140.72;100.00;52758.16;4984174;28;19957;-68
2023/06/30 04:20:55;;;;;;;;;;;;;;;-140.72;100.00;52745.97;4984156;28;20289;-73
2023/06/30 04:23:21;;;;;;;;;;;;;;;-140.72;100.00;52762.22;4983693;28;20311;-73
2023/06/30 04:25:46;;;;;;;;;;;;;;;-140.72;100.00;52745.97;4985679;28;19958;-73
2023/06/30 04:28:11;;;;;;;;;;;;;;;-140.72;100.00;52752.06;4973438;28;19930;-73
2023/06/30 04:30:37;;;;;;;;;;;;;;;-140.72;100.00;52715.53;4971007;28;19948;-76
2023/06/30 04:33:02;;;;;;;;;;;;;;;-140.72;100.00;52719.59;4985143;28;19929;-72
2023/06/30 04:35:27;;;;;;;;;;;;;;;-140.72;100.00;52735.81;4985379;28;19925;-70
2023/06/30 04:37:53;;;;;;;;;;;;;;;-140.72;100.00;52752.06;4985717;28;20080;-70
2023/06/30 04:40:18;;;;;;;;;;;;;;;-140.72;100.00;52727.72;4966810;28;19926;-70
2023/06/30 04:42:44;;;;;;;;;;;;;;;-140.72;100.00;52723.66;4984273;28;20342;-70
2023/06/30 04:45:10;;;;;;;;;;;;;;;-140.72;100.00;52743.94;4985315;28;19925;-69
2023/06/30 04:47:35;;;;;;;;;;;;;;;-140.72;100.00;52735.81;4985830;28;19921;-70
2023/06/30 04:50:00;;;;;;;;;;;;;;;-140.72;100.00;52725.69;4967371;28;19922;-70
2023/06/30 04:52:26;;;;;;;;;;;;;;;-140.72;100.00;52685.09;4981808;28;19926;-69
2023/06/30 04:54:51;;;;;;;;;;;;;;;-140.72;100.00;52721.63;4986010;28;19981;-70
2023/06/30 04:57:17;;;;;;;;;;;;;;;-140.72;100.00;52735.81;4968647;28;21170;-70
2023/06/30 04:59:42;;;;;;;;;;;;;;;-140.72;100.00;52733.78;4968970;28;19928;-70
2023/06/30 05:02:07;;;;;;;;;;;;;;;-140.72;100.00;52711.47;4986198;28;19921;-69
2023/06/30 05:04:32;;;;;;;;;;;;;;;-140.72;100.00;52715.53;4987519;28;19954;-71
2023/06/30 05:06:58;;;;;;;;;;;;;;;-140.72;100.00;52705.38;4987676;28;19925;-69
2023/06/30 05:09:23;;;;;;;;;;;;;;;-140.72;100.00;52707.41;4989322;28;19928;-73
2023/06/30 05:11:49;;;;;;;;;;;;;;;-140.72;100.00;52705.38;4996697;28;19926;-70
2023/06/30 05:14:14;;;;;;;;;;;;;;;-140.72;100.00;52672.91;4990698;28;19926;-70
2023/06/30 05:16:39;;;;;;;;;;;;;;;-140.72;100.00;52731.75;4990313;28;19998;-71
2023/06/30 05:19:04;;;;;;;;;;;;;;;-140.72;100.00;52727.72;4969710;28;20384;-70
2023/06/30 05:21:30;;;;;;;;;;;;;;;-140.72;100.00;52705.38;4988479;28;20364;-70
2023/06/30 05:23:55;;;;;;;;;;;;;;;-140.72;100.00;52683.06;4986832;28;19932;-74
2023/06/30 05:26:21;;;;;;;;;;;;;;;-140.72;100.00;52685.09;4986686;28;20402;-70
2023/06/30 05:28:46;;;;;;;;;;;;;;;-140.72;100.00;52723.66;4988091;28;19922;-70
2023/06/30 05:31:13;;;;;;;;;;;;;;;-140.72;100.00;52719.59;4989198;28;21631;-70
2023/06/30 05:33:38;;;;;;;;;;;;;;;-140.72;100.00;52654.66;4989661;28;19930;-70
2023/06/30 05:36:04;;;;;;;;;;;;;;;-140.72;100.00;52693.22;4985075;28;19922;-70
2023/06/30 05:38:29;;;;;;;;;;;;;;;-140.72;100.00;52689.16;4987050;28;19988;-70
2023/06/30 05:40:55;;;;;;;;;;;;;;;-140.72;100.00;52683.06;4986044;28;19921;-70
2023/06/30 05:43:20;;;;;;;;;;;;;;;-140.72;100.00;52689.16;4987228;28;20056;-70
2023/06/30 05:45:46;;;;;;;;;;;;;;;-140.72;100.00;52650.59;4988749;28;19961;-70
2023/06/30 05:48:11;;;;;;;;;;;;;;;-140.72;100.00;52668.84;4992726;28;19979;-69
2023/06/30 05:50:36;;;;;;;;;;;;;;;-140.72;100.00;52683.06;4975851;28;20380;-70
2023/06/30 05:53:03;;;;;;;;;;;;;;;-140.72;100.00;52676.97;4994409;28;19928;-69
2023/06/30 05:55:29;;;;;;;;;;;;;;;-140.72;100.00;52689.16;4989762;28;20313;-69
2023/06/30 05:57:54;;;;;;;;;;;;;;;-140.72;100.00;52683.06;4991286;28;19921;-69
2023/06/30 06:00:23;;;;;;;;;;;;;;;-140.72;100.00;52670.88;4991582;28;19929;-70
2023/06/30 06:02:51;;;;;;;;;;;;;;;-140.72;100.00;52666.84;4988486;28;19926;-72
2023/06/30 06:05:17;;;;;;;;;;;;;;;-140.72;100.00;52670.88;4976470;28;20036;-74
2023/06/30 06:07:43;;;;;;;;;;;;;;;-140.72;100.00;52650.59;4992274;28;19922;-70
2023/06/30 06:10:08;;;;;;;;;;;;;;;-140.72;100.00;52666.84;4992312;28;19922;-70
2023/06/30 06:12:33;;;;;;;;;;;;;;;-140.72;100.00;52640.44;4983635;28;19929;-71
2023/06/30 06:14:59;;;;;;;;;;;;;;;-140.72;100.00;52650.59;4989604;28;20003;-70
2023/06/30 06:17:24;;;;;;;;;;;;;;;-140.72;100.00;52610.00;4990888;28;19929;-71
2023/06/30 06:19:51;;;;;;;;;;;;;;;-140.72;100.00;52622.19;4967738;28;19926;-78
2023/06/30 06:22:16;;;;;;;;;;;;;;;-140.72;100.00;52634.38;4986099;28;19929;-69
2023/06/30 06:24:42;;;;;;;;;;;;;;;-140.72;100.00;52632.34;4983079;28;19922;-69
2023/06/30 06:27:07;;;;;;;;;;;;;;;-140.72;100.00;52616.09;4988091;28;19922;-69
2023/06/30 06:29:32;;;;;;;;;;;;;;;-140.72;100.00;52632.34;4987283;28;19922;-69
2023/06/30 06:31:58;;;;;;;;;;;;;;;-140.72;100.00;52622.19;4986794;28;19928;-69
2023/06/30 06:34:23;;;;;;;;;;;;;;;-140.72;100.00;52620.16;4986903;28;20339;-69
2023/06/30 06:36:49;;;;;;;;;;;;;;;-140.72;100.00;52630.31;4988722;28;19948;-69
2023/06/30 06:39:14;;;;;;;;;;;;;;;-140.72;100.00;52614.06;4982992;28;19926;-70
2023/06/30 06:41:39;;;;;;;;;;;;;;;-140.72;100.00;52593.78;4985720;28;19941;-69
2023/06/30 06:44:05;;;;;;;;;;;;;;;-140.72;100.00;52634.38;4988472;28;19976;-69
2023/06/30 06:46:30;;;;;;;;;;;;;;;-140.72;100.00;52591.75;4991000;28;19922;-69
2023/06/30 06:48:55;;;;;;;;;;;;;;;-140.72;100.00;52565.38;4988455;28;19918;-70
2023/06/30 06:51:21;;;;;;;;;;;;;;;-140.72;100.00;52567.41;4988348;28;19961;-69
2023/06/30 06:53:46;;;;;;;;;;;;;;;-140.72;100.00;52593.78;4985495;28;20372;-69
2023/06/30 06:56:11;;;;;;;;;;;;;;;-140.72;100.00;52595.81;4987967;28;19980;-69
2023/06/30 06:58:38;;;;;;;;;;;;;;;-140.72;100.00;52549.13;4990883;28;20075;-70
2023/06/30 07:01:03;;;;;;;;;;;;;;;-140.72;75.30;52545.06;4989638;28;19930;-70
2023/06/30 07:03:28;;;;;;;;;;;;;;;-140.72;59.17;52622.19;4986037;28;19930;-70
2023/06/30 07:05:55;;;;;;;;;;;;;;;-140.72;30.95;52561.31;4989232;28;19922;-74
2023/06/30 07:08:21;;;;;;;;;;;;;;;-140.72;4.56;52567.41;4988805;28;19922;-70
2023/06/30 07:10:47;;;;;;;;;;;;;;;-140.72;0.00;52581.59;4975317;28;20391;-70
2023/06/30 07:13:13;;;;;;;;;;;;;;;-140.72;0.00;52563.34;4972536;28;19921;-70
2023/06/30 07:15:40;;;;;;;;;;;;;;;-140.72;0.00;52536.97;4990998;28;19922;-72
2023/06/30 07:18:05;;;;;;;;;;;;;;;-140.72;0.00;52573.50;4986396;28;19932;-71
2023/06/30 07:20:30;;;;;;;;;;;;;;;-140.72;0.00;52589.72;4989573;28;20017;-71
2023/06/30 07:22:56;;;;;;;;;;;;;;;-140.72;0.00;52545.06;4987832;28;19932;-74
2023/06/30 07:25:25;;;;;;;;;;;;;;;-140.72;0.00;52543.03;4986800;28;19973;-70
2023/06/30 07:27:54;;;;;;;;;;;;;;;-140.72;0.00;52545.06;4991764;28;19944;-70
2023/06/30 07:30:21;;;;;;;;;;;;;;;-140.72;0.00;52534.94;4993463;28;19926;-71
2023/06/30 07:32:46;;;;;;;;;;;;;;;-140.72;0.00;52571.47;4992347;28;19933;-70
2023/06/30 07:35:12;;;;;;;;;;;;;;;-140.72;0.00;52522.75;4991403;28;19922;-70
2023/06/30 07:37:44;;;;;;;;;;;;;;;-140.72;0.00;52520.72;4990530;28;20424;-70
2023/06/30 07:40:09;;;;;;;;;;;;;;;-140.72;0.00;52488.25;4985700;28;20320;-69
2023/06/30 07:42:38;;;;;;;;;;;;;;;-140.72;0.00;52516.66;4990482;28;19929;-70
2023/06/30 07:45:04;;;;;;;;;;;;;;;-140.72;0.00;52506.53;4990724;28;19953;-69
2023/06/30 07:47:31;;;;;;;;;;;;;;;-140.72;0.00;52492.31;4988414;28;19922;-69
2023/06/30 07:49:56;;;;;;;;;;;;;;;-140.72;0.00;52498.41;4990055;28;19928;-69
2023/06/30 07:52:21;;;;;;;;;;;;;;;-140.72;0.00;52490.28;4990478;28;19922;-69
2023/06/30 07:54:57;;;;;;;;;;;;;;;-140.72;0.00;52484.19;4991765;28;19921;-69
2023/06/30 07:57:25;;;;;;;;;;;;;;;-140.72;0.00;52467.97;4986620;28;19926;-71
2023/06/30 07:59:51;;;;;;;;;;;;;;;-140.72;0.00;52461.88;4967925;28;19981;-70
2023/06/30 08:02:17;;;;;;;;;;;;;;;-140.72;0.00;52476.09;4982208;28;19957;-70
2023/06/30 08:04:50;;;;;;;;;;;;;;;-140.72;0.00;52482.16;4983677;28;20021;-69
2023/06/30 08:07:16;;;;;;;;;;;;;;;-140.72;0.00;52488.25;4969237;28;20000;-70
2023/06/30 08:09:41;;;;;;;;;;;;;;;-140.72;0.00;52443.63;4988398;28;20069;-70
2023/06/30 08:12:06;;;;;;;;;;;;;;;-140.72;0.00;52480.16;4990905;28;19922;-73
2023/06/30 08:14:32;;;;;;;;;;;;;;;-140.72;0.00;52449.72;4992200;28;19922;-69
2023/06/30 08:16:57;;;;;;;;;;;;;;;-140.72;0.00;52433.47;4991006;28;19957;-69
2023/06/30 08:19:23;;;;;;;;;;;;;;;-140.72;0.00;52435.50;4995401;28;20070;-69
2023/06/30 08:21:48;;;;;;;;;;;;;;;-140.72;0.00;52463.91;4993246;28;19925;-69
2023/06/30 08:24:14;;;;;;;;;;;;;;;-140.72;0.00;52461.88;4969268;28;19969;-69
2023/06/30 08:26:39;;;;;;;;;;;;;;;-140.72;0.00;52411.16;4986433;28;19921;-68
2023/06/30 08:29:04;;;;;;;;;;;;;;;-140.72;0.00;52431.44;4987839;28;20352;-68
2023/06/30 08:31:30;;;;;;;;;;;;;;;-140.72;0.00;52476.09;4990356;28;19944;-69
2023/06/30 08:33:56;;;;;;;;;;;;;;;-140.72;0.00;52437.53;4984825;28;19976;-69
2023/06/30 08:36:22;;;;;;;;;;;;;;;-140.72;0.00;52409.13;4988846;28;19918;-69
2023/06/30 08:38:47;;;;;;;;;;;;;;;-140.72;0.00;52401.00;4974432;28;19922;-69
2023/06/30 08:41:14;;;;;;;;;;;;;;;-140.72;0.00;52435.50;4990130;28;20367;-69
2023/06/30 08:43:40;;;;;;;;;;;;;;;-140.72;0.00;52427.38;4976073;28;19922;-69
2023/06/30 08:46:07;;;;;;;;;;;;;;;-140.72;0.00;52382.75;4981081;28;20044;-69
2023/06/30 08:48:32;;;;;;;;;;;;;;;-140.72;0.00;52362.44;4987309;28;19926;-69
2023/06/30 08:50:58;;;;;;;;;;;;;;;-140.72;0.00;52378.69;4986298;28;19984;-69
2023/06/30 08:53:26;;;;;;;;;;;;;;;-140.72;0.00;52419.28;4986943;28;20384;-68
2023/06/30 08:55:53;;;;;;;;;;;;;;;-140.72;0.00;52405.06;4990120;28;19918;-69
2023/06/30 08:58:19;;;;;;;;;;;;;;;-140.72;0.00;52401.00;4980073;28;19976;-69
2023/06/30 09:00:44;;;;;;;;;;;;;;;-140.72;0.00;52405.06;4982698;28;20327;-69
2023/06/30 09:03:10;;;;;;;;;;;;;;;-140.72;0.00;52378.69;4992515;28;19936;-69
2023/06/30 09:05:38;;;;;;;;;;;;;;;-140.72;0.00;52386.81;4994709;28;20356;-68
2023/06/30 09:08:08;;;;;;;;;;;;;;;-140.72;0.00;52374.63;4991392;28;20946;-69
2023/06/30 09:10:37;;;;;;;;;;;;;;;-140.72;0.00;52409.13;4982544;28;20029;-69
2023/06/30 09:13:03;;;;;;;;;;;;;;;-140.72;0.00;52396.94;4991651;28;20052;-68
2023/06/30 09:15:28;;;;;;;;;;;;;;;-140.72;0.00;52411.16;4991566;28;20009;-69
2023/06/30 09:17:54;;;;;;;;;;;;;;;-140.72;0.00;52451.72;4993672;28;20000;-72
2023/06/30 09:20:34;;;;;;;;;;;;;;;-140.72;0.00;52405.06;4985455;28;19918;-70
2023/06/30 09:23:02;;;;;;;;;;;;;;;-140.72;0.00;52401.00;4987734;28;19921;-71
2023/06/30 09:25:27;;;;;;;;;;;;;;;-140.72;0.00;52390.84;4977925;28;19926;-70
2023/06/30 09:27:53;;;;;;;;;;;;;;;-140.72;0.00;52423.31;4995404;28;20295;-70
2023/06/30 09:30:18;;;;;;;;;;;;;;;-140.72;0.00;52437.53;4977188;28;20012;-70
2023/06/30 09:32:46;;;;;;;;;;;;;;;-140.72;0.00;52419.28;4989042;28;19918;-70
2023/06/30 09:35:15;;;;;;;;;;;;;;;-140.72;0.00;52384.78;4989480;28;19918;-75
2023/06/30 09:37:44;;;;;;;;;;;;;;;-140.72;0.00;52392.88;4977625;28;20077;-70
2023/06/30 09:40:15;;;;;;;;;;;;;;;-140.72;0.00;52362.44;4994147;28;19961;-72
2023/06/30 09:42:44;;;;;;;;;;;;;;;-140.72;0.00;52342.16;4994913;28;19929;-69
2023/06/30 09:45:10;;;;;;;;;;;;;;;-140.72;0.00;52352.31;4993161;28;19933;-69
2023/06/30 09:47:35;;;;;;;;;;;;;;;-140.72;0.00;52358.41;4992689;28;19944;-69
2023/06/30 09:50:00;;;;;;;;;;;;;;;-140.72;0.00;52342.16;4991984;28;19921;-69
2023/06/30 09:52:26;;;;;;;;;;;;;;;-140.72;0.00;52366.50;4981466;28;19918;-69
2023/06/30 09:54:51;;;;;;;;;;;;;;;-140.72;0.00;52354.34;4995038;28;19918;-69
2023/06/30 09:57:17;;;;;;;;;;;;;;;-140.72;0.00;52317.81;4974427;28;19918;-69
2023/06/30 09:59:45;;;;;;;;;;;;;;;-140.72;0.00;52273.19;4974346;28;19928;-69
2023/06/30 10:02:14;;;;;;;;;;;;;;;-140.72;0.00;52301.59;4989492;28;19929;-69
2023/06/30 10:04:41;;;;;;;;;;;;;;;-140.72;0.00;52287.38;4995259;28;19984;-69
2023/06/30 10:07:06;;;;;;;;;;;;;;;-140.72;0.00;52246.78;4977413;28;20386;-69
2023/06/30 10:09:33;;;;;;;;;;;;;;;-140.72;0.00;52252.88;4985144;28;19921;-69
2023/06/30 10:11:59;;;;;;;;;;;;;;;-140.72;0.00;52289.41;4978664;28;20293;-70
2023/06/30 10:14:29;;;;;;;;;;;;;;;-140.72;0.00;52301.59;4992879;28;19928;-70
2023/06/30 10:16:59;;;;;;;;;;;;;;;-140.72;0.00;52356.38;4991723;28;19922;-72
2023/06/30 10:19:25;;;;;;;;;;;;;;;-140.72;0.00;52398.97;4975899;28;19956;-70
2023/06/30 10:21:51;;;;;;;;;;;;;;;-140.72;0.00;52295.50;4993200;28;19937;-68
2023/06/30 10:24:23;;;;;;;;;;;;;;;-140.72;0.00;52267.09;4991160;28;19922;-68
2023/06/30 10:26:49;;;;;;;;;;;;;;;-140.72;0.00;52283.31;4992978;28;20474;-69
2023/06/30 10:29:15;;;;;;;;;;;;;;;-140.72;0.00;52208.25;4984275;28;19982;-68
2023/06/30 10:31:42;;;;;;;;;;;;;;;-140.72;0.00;52287.38;4983156;28;19966;-68
2023/06/30 10:34:07;;;;;;;;;;;;;;;-140.72;0.00;52342.16;4981834;28;19922;-68
2023/06/30 10:36:33;;;;;;;;;;;;;;;-140.72;0.00;52332.03;4991653;28;19925;-69
2023/06/30 10:38:59;;;;;;;;;;;;;;;-140.72;0.00;52356.38;4987873;28;19945;-68
2023/06/30 10:41:24;;;;;;;;;;;;;;;-140.72;0.00;52309.69;4983994;28;20008;-69
2023/06/30 10:44:08;;;;;;;;;;;;;;;-140.72;0.00;52303.59;4991011;28;20415;-68
2023/06/30 10:46:49;;;;;;;;;;;;;;;-140.72;0.00;52334.03;4989972;28;19925;-69
2023/06/30 10:49:25;;;;;;;;;;;;;;;-140.72;0.00;52212.31;4989213;28;20393;-69
2023/06/30 10:51:51;;;;;;;;;;;;;;;-140.72;0.00;52187.97;4984917;28;19956;-69
2023/06/30 10:54:20;;;;;;;;;;;;;;;-140.72;0.00;52232.59;4978446;28;20357;-69
2023/06/30 10:56:45;;;;;;;;;;;;;;;-140.72;0.00;52271.16;4984921;28;20308;-69
2023/06/30 10:59:20;;;;;;;;;;;;;;;-140.72;0.00;52330.00;4974284;28;19922;-69
2023/06/30 11:02:04;;;;;;;;;;;;;;;-140.72;0.00;52228.53;4979520;28;19926;-69
2023/06/30 11:04:36;;;;;;;;;;;;;;;-140.72;0.00;52297.53;4993620;28;20372;-70
2023/06/30 11:07:02;;;;;;;;;;;;;;;-140.72;0.00;52196.06;4984445;28;19952;-69
2023/06/30 11:09:47;;;;;;;;;;;;;;;-140.72;0.00;52137.22;4987466;28;19922;-69
2023/06/30 11:12:26;;;;;;;;;;;;;;;-140.72;0.00;52078.38;4973938;28;20373;-70
2023/06/30 11:14:58;;;;;;;;;;;;;;;-140.72;0.00;52045.94;4991563;28;19918;-70
2023/06/30 11:17:28;;;;;;;;;;;;;;;-140.72;0.00;52029.69;4980670;28;19918;-69
2023/06/30 11:20:12;;;;;;;;;;;;;;;-140.72;0.00;52192.00;4980016;28;20001;-70
2023/06/30 11:22:37;;;;;;;;;;;;;;;-140.72;0.00;52127.09;4990358;28;20016;-69
2023/06/30 11:25:09;;;;;;;;;;;;;;;-140.72;0.00;52084.47;4990584;28;20339;-69
2023/06/30 11:27:34;;;;;;;;;;;;;;;-140.72;0.00;52123.03;4994233;28;19921;-70
2023/06/30 11:30:00;;;;;;;;;;;;;;;-140.72;0.00;52056.06;4984574;28;19949;-70
2023/06/30 11:32:29;;;;;;;;;;;;;;;-140.72;0.00;52153.47;4980821;28;19925;-69
2023/06/30 11:34:55;;;;;;;;;;;;;;;-140.72;0.00;52153.47;4984710;28;19918;-69
2023/06/30 11:37:20;;;;;;;;;;;;;;;-140.72;0.00;52232.59;4989426;28;19980;-70
2023/06/30 11:39:49;;;;;;;;;;;;;;;-140.72;0.00;52240.72;4980356;28;20347;-69
2023/06/30 11:42:14;;;;;;;;;;;;;;;-140.72;0.00;52261.00;4985867;28;19918;-69
2023/06/30 11:44:39;;;;;;;;;;;;;;;-140.72;0.00;52230.56;4994205;28;20024;-69
2023/06/30 11:47:05;;;;;;;;;;;;;;;-140.72;0.00;52121.00;4992948;28;19976;-69
2023/06/30 11:49:34;;;;;;;;;;;;;;;-140.72;0.00;52082.44;4980682;28;19922;-69
2023/06/30 11:52:00;;;;;;;;;;;;;;;-140.72;0.00;52092.59;4992102;28;19922;-70
2023/06/30 11:54:29;;;;;;;;;;;;;;;-140.72;0.00;52078.38;4985532;28;19933;-69
2023/06/30 11:56:56;;;;;;;;;;;;;;;-140.72;0.00;52212.31;4987539;28;19949;-70
2023/06/30 11:59:21;;;;;;;;;;;;;;;-140.72;0.00;52153.47;4984462;28;19922;-69
2023/06/30 12:01:47;;;;;;;;;;;;;;;-140.72;0.00;52155.50;4983052;28;20052;-69
2023/06/30 12:04:12;;;;;;;;;;;;;;;-140.72;0.00;52155.50;4982768;28;19922;-69
2023/06/30 12:06:37;;;;;;;;;;;;;;;-140.72;0.00;52147.38;4986749;28;20303;-69
2023/06/30 12:09:03;;;;;;;;;;;;;;;-140.72;0.00;52212.31;4992756;28;19922;-69
2023/06/30 12:11:29;;;;;;;;;;;;;;;-140.72;0.00;52171.72;4996632;28;19933;-69
2023/06/30 12:13:54;;;;;;;;;;;;;;;-140.72;0.00;52196.06;5001362;28;19933;-69
2023/06/30 12:16:19;;;;;;;;;;;;;;;-140.72;0.00;52169.69;5001586;28;19979;-69
2023/06/30 12:18:45;;;;;;;;;;;;;;;-140.72;0.00;52159.56;4982964;28;19922;-69
2023/06/30 12:21:11;;;;;;;;;;;;;;;-140.72;0.00;52076.34;4981069;28;19923;-69